sensor_id;sensor_type;location;lat;lon;timestamp;temperature;humidity
21635;DHT22;10979;48.306;9.830;2022-07-25T00:02:23;15.40;99.90
21635;DHT22;10979;48.306;9.830;2022-07-25T00:04:48;15.40;99.90
21635;DHT22;10979;48.306;9.830;2022-07-25T00:07:14;15.10;99.90
21635;DHT22;10979;48.306;9.830;2022-07-25T00:09:39;15.00;99.90
21635;DHT22;10979;48.306;9.830;2022-07-25T00:12:05;15.20;99.90
21635;DHT22;10979;48.306;9.830;2022-07-25T00:14:31;15.00;99.90
21635;DHT22;10979;48.306;9.830;2022-07-25T00:16:56;15.20;99.90
21635;DHT22;10979;48.306;9.830;2022-07-25T00:19:22;15.00;99.90
21635;DHT22;10979;48.306;9.830;2022-07-25T00:21:48;15.00;99.90
21635;DHT22;10979;48.306;9.830;2022-07-25T00:24:13;14.80;99.90
21635;DHT22;10979;48.306;9.830;2022-07-25T00:26:39;14.90;99.90
21635;DHT22;10979;48.306;9.830;2022-07-25T00:29:04;14.90;99.90
21635;DHT22;10979;48.306;9.830;2022-07-25T00:31:30;14.90;99.90
21635;DHT22;10979;48.306;9.830;2022-07-25T00:33:55;14.90;99.90
21635;DHT22;10979;48.306;9.830;2022-07-25T00:36:21;14.80;99.90
21635;DHT22;10979;48.306;9.830;2022-07-25T00:38:47;14.80;99.90
21635;DHT22;10979;48.306;9.830;2022-07-25T00:41:12;15.00;99.90
21635;DHT22;10979;48.306;9.830;2022-07-25T00:43:42;15.00;99.90
21635;DHT22;10979;48.306;9.830;2022-07-25T00:46:11;14.70;99.90
21635;DHT22;10979;48.306;9.830;2022-07-25T00:48:37;14.80;99.90
21635;DHT22;10979;48.306;9.830;2022-07-25T00:51:03;14.70;99.90
21635;DHT22;10979;48.306;9.830;2022-07-25T00:53:29;14.60;99.90
21635;DHT22;10979;48.306;9.830;2022-07-25T00:55:54;14.70;99.90
21635;DHT22;10979;48.306;9.830;2022-07-25T00:58:20;14.80;99.90
21635;DHT22;10979;48.306;9.830;2022-07-25T01:00:46;14.50;99.90
21635;DHT22;10979;48.306;9.830;2022-07-25T01:03:12;14.50;99.90
21635;DHT22;10979;48.306;9.830;2022-07-25T01:05:38;14.60;99.90
21635;DHT22;10979;48.306;9.830;2022-07-25T01:08:03;14.80;99.90
21635;DHT22;10979;48.306;9.830;2022-07-25T01:10:30;14.70;99.90
21635;DHT22;10979;48.306;9.830;2022-07-25T01:12:56;14.70;99.90
21635;DHT22;10979;48.306;9.830;2022-07-25T01:15:23;14.80;99.90
21635;DHT22;10979;48.306;9.830;2022-07-25T01:17:49;14.50;99.90
21635;DHT22;10979;48.306;9.830;2022-07-25T01:20:17;14.50;99.90
21635;DHT22;10979;48.306;9.830;2022-07-25T01:22:43;14.30;99.90
21635;DHT22;10979;48.306;9.830;2022-07-25T01:25:10;14.10;99.90
21635;DHT22;10979;48.306;9.830;2022-07-25T01:27:36;14.10;99.90
21635;DHT22;10979;48.306;9.830;2022-07-25T01:30:04;14.10;99.90
21635;DHT22;10979;48.306;9.830;2022-07-25T01:32:30;14.00;99.90
21635;DHT22;10979;48.306;9.830;2022-07-25T01:34:56;14.00;99.90
21635;DHT22;10979;48.306;9.830;2022-07-25T01:37:21;14.00;99.90
21635;DHT22;10979;48.306;9.830;2022-07-25T01:39:47;14.10;99.90
21635;DHT22;10979;48.306;9.830;2022-07-25T01:42:13;14.10;99.90
21635;DHT22;10979;48.306;9.830;2022-07-25T01:44:38;14.20;99.90
21635;DHT22;10979;48.306;9.830;2022-07-25T01:47:04;14.10;99.90
21635;DHT22;10979;48.306;9.830;2022-07-25T01:49:29;14.00;99.90
21635;DHT22;10979;48.306;9.830;2022-07-25T01:51:55;13.90;99.90
21635;DHT22;10979;48.306;9.830;2022-07-25T01:54:20;13.90;99.90
21635;DHT22;10979;48.306;9.830;2022-07-25T01:56:46;14.10;99.90
21635;DHT22;10979;48.306;9.830;2022-07-25T01:59:12;14.10;99.90
21635;DHT22;10979;48.306;9.830;2022-07-25T02:01:37;14.10;99.90
21635;DHT22;10979;48.306;9.830;2022-07-25T02:04:03;14.00;99.90
21635;DHT22;10979;48.306;9.830;2022-07-25T02:06:29;13.90;99.90
21635;DHT22;10979;48.306;9.830;2022-07-25T02:08:54;13.80;99.90
21635;DHT22;10979;48.306;9.830;2022-07-25T02:11:20;13.70;99.90
21635;DHT22;10979;48.306;9.830;2022-07-25T02:13:45;13.50;99.90
21635;DHT22;10979;48.306;9.830;2022-07-25T02:16:11;13.40;99.90
21635;DHT22;10979;48.306;9.830;2022-07-25T02:18:37;13.40;99.90
21635;DHT22;10979;48.306;9.830;2022-07-25T02:21:03;13.60;99.90
21635;DHT22;10979;48.306;9.830;2022-07-25T02:23:32;13.70;99.90
21635;DHT22;10979;48.306;9.830;2022-07-25T02:25:57;13.70;99.90
21635;DHT22;10979;48.306;9.830;2022-07-25T02:28:23;13.50;99.90
21635;DHT22;10979;48.306;9.830;2022-07-25T02:30:49;13.40;99.90
21635;DHT22;10979;48.306;9.830;2022-07-25T02:33:14;13.40;99.90
21635;DHT22;10979;48.306;9.830;2022-07-25T02:35:40;13.30;99.90
21635;DHT22;10979;48.306;9.830;2022-07-25T02:38:05;13.40;99.90
21635;DHT22;10979;48.306;9.830;2022-07-25T02:40:31;13.50;99.90
21635;DHT22;10979;48.306;9.830;2022-07-25T02:42:57;13.70;99.90
21635;DHT22;10979;48.306;9.830;2022-07-25T02:45:22;13.40;99.90
21635;DHT22;10979;48.306;9.830;2022-07-25T02:47:48;13.30;99.90
21635;DHT22;10979;48.306;9.830;2022-07-25T02:50:14;13.30;99.90
21635;DHT22;10979;48.306;9.830;2022-07-25T02:52:39;13.30;99.90
21635;DHT22;10979;48.306;9.830;2022-07-25T02:55:05;13.20;99.90
21635;DHT22;10979;48.306;9.830;2022-07-25T02:57:31;13.20;99.90
21635;DHT22;10979;48.306;9.830;2022-07-25T02:59:57;13.00;99.90
21635;DHT22;10979;48.306;9.830;2022-07-25T03:02:22;13.10;99.90
21635;DHT22;10979;48.306;9.830;2022-07-25T03:04:48;13.10;99.90
21635;DHT22;10979;48.306;9.830;2022-07-25T03:07:14;13.00;99.90
21635;DHT22;10979;48.306;9.830;2022-07-25T03:09:39;13.00;99.90
21635;DHT22;10979;48.306;9.830;2022-07-25T03:12:05;13.00;99.90
21635;DHT22;10979;48.306;9.830;2022-07-25T03:14:31;13.20;99.90
21635;DHT22;10979;48.306;9.830;2022-07-25T03:16:56;13.20;99.90
21635;DHT22;10979;48.306;9.830;2022-07-25T03:19:22;13.30;99.90
21635;DHT22;10979;48.306;9.830;2022-07-25T03:21:47;13.30;99.90
21635;DHT22;10979;48.306;9.830;2022-07-25T03:24:13;13.30;99.90
21635;DHT22;10979;48.306;9.830;2022-07-25T03:26:39;12.90;99.90
21635;DHT22;10979;48.306;9.830;2022-07-25T03:29:05;12.80;99.90
21635;DHT22;10979;48.306;9.830;2022-07-25T03:31:30;12.70;99.90
21635;DHT22;10979;48.306;9.830;2022-07-25T03:33:56;12.60;99.90
21635;DHT22;10979;48.306;9.830;2022-07-25T03:36:21;12.70;99.90
21635;DHT22;10979;48.306;9.830;2022-07-25T03:38:47;12.80;99.90
21635;DHT22;10979;48.306;9.830;2022-07-25T03:41:13;13.00;99.90
21635;DHT22;10979;48.306;9.830;2022-07-25T03:43:38;13.00;99.90
21635;DHT22;10979;48.306;9.830;2022-07-25T03:46:04;13.00;99.90
21635;DHT22;10979;48.306;9.830;2022-07-25T03:48:29;13.00;99.90
21635;DHT22;10979;48.306;9.830;2022-07-25T03:50:56;12.90;99.90
21635;DHT22;10979;48.306;9.830;2022-07-25T03:53:21;12.90;99.90
21635;DHT22;10979;48.306;9.830;2022-07-25T03:55:47;12.80;99.90
21635;DHT22;10979;48.306;9.830;2022-07-25T03:58:13;12.90;99.90
21635;DHT22;10979;48.306;9.830;2022-07-25T04:00:38;12.70;99.90
21635;DHT22;10979;48.306;9.830;2022-07-25T04:03:04;12.70;99.90
21635;DHT22;10979;48.306;9.830;2022-07-25T04:05:30;12.70;99.90
21635;DHT22;10979;48.306;9.830;2022-07-25T04:07:56;12.80;99.90
21635;DHT22;10979;48.306;9.830;2022-07-25T04:10:22;12.90;99.90
21635;DHT22;10979;48.306;9.830;2022-07-25T04:12:47;13.00;99.90
21635;DHT22;10979;48.306;9.830;2022-07-25T04:15:13;13.10;99.90
21635;DHT22;10979;48.306;9.830;2022-07-25T04:17:38;13.00;99.90
21635;DHT22;10979;48.306;9.830;2022-07-25T04:20:05;12.90;99.90
21635;DHT22;10979;48.306;9.830;2022-07-25T04:22:31;12.90;99.90
21635;DHT22;10979;48.306;9.830;2022-07-25T04:24:56;13.00;99.90
21635;DHT22;10979;48.306;9.830;2022-07-25T04:27:22;13.30;99.90
21635;DHT22;10979;48.306;9.830;2022-07-25T04:29:48;13.20;99.90
21635;DHT22;10979;48.306;9.830;2022-07-25T04:32:13;13.30;99.90
21635;DHT22;10979;48.306;9.830;2022-07-25T04:34:41;13.40;99.90
21635;DHT22;10979;48.306;9.830;2022-07-25T04:37:07;13.40;99.90
21635;DHT22;10979;48.306;9.830;2022-07-25T04:39:33;13.60;99.90
21635;DHT22;10979;48.306;9.830;2022-07-25T04:41:59;13.80;99.90
21635;DHT22;10979;48.306;9.830;2022-07-25T04:44:24;14.00;99.90
21635;DHT22;10979;48.306;9.830;2022-07-25T04:46:50;14.30;99.90
21635;DHT22;10979;48.306;9.830;2022-07-25T04:49:16;14.60;99.90
21635;DHT22;10979;48.306;9.830;2022-07-25T04:51:41;15.00;99.90
21635;DHT22;10979;48.306;9.830;2022-07-25T04:54:07;15.50;99.90
21635;DHT22;10979;48.306;9.830;2022-07-25T04:56:33;15.50;99.90
21635;DHT22;10979;48.306;9.830;2022-07-25T04:58:59;15.50;99.90
21635;DHT22;10979;48.306;9.830;2022-07-25T05:01:24;16.10;99.90
21635;DHT22;10979;48.306;9.830;2022-07-25T05:03:50;16.10;99.90
21635;DHT22;10979;48.306;9.830;2022-07-25T05:06:16;16.10;99.90
21635;DHT22;10979;48.306;9.830;2022-07-25T05:08:41;16.10;99.90
21635;DHT22;10979;48.306;9.830;2022-07-25T05:11:07;16.20;99.90
21635;DHT22;10979;48.306;9.830;2022-07-25T05:13:33;16.60;99.90
21635;DHT22;10979;48.306;9.830;2022-07-25T05:15:58;16.80;99.90
21635;DHT22;10979;48.306;9.830;2022-07-25T05:18:24;17.00;99.90
21635;DHT22;10979;48.306;9.830;2022-07-25T05:20:49;17.20;99.90
21635;DHT22;10979;48.306;9.830;2022-07-25T05:23:15;17.30;99.90
21635;DHT22;10979;48.306;9.830;2022-07-25T05:25:40;17.10;99.90
21635;DHT22;10979;48.306;9.830;2022-07-25T05:28:06;17.10;99.90
21635;DHT22;10979;48.306;9.830;2022-07-25T05:30:31;17.20;99.90
21635;DHT22;10979;48.306;9.830;2022-07-25T05:32:57;17.20;99.90
21635;DHT22;10979;48.306;9.830;2022-07-25T05:35:22;17.30;99.90
21635;DHT22;10979;48.306;9.830;2022-07-25T05:37:48;17.50;99.90
21635;DHT22;10979;48.306;9.830;2022-07-25T05:40:14;17.60;99.90
21635;DHT22;10979;48.306;9.830;2022-07-25T05:42:39;17.80;99.90
21635;DHT22;10979;48.306;9.830;2022-07-25T05:45:05;17.90;99.90
21635;DHT22;10979;48.306;9.830;2022-07-25T05:47:31;18.40;99.90
21635;DHT22;10979;48.306;9.830;2022-07-25T05:49:56;18.90;99.90
21635;DHT22;10979;48.306;9.830;2022-07-25T05:52:22;19.30;99.90
21635;DHT22;10979;48.306;9.830;2022-07-25T05:54:48;19.40;99.90
21635;DHT22;10979;48.306;9.830;2022-07-25T05:57:14;19.80;99.90
21635;DHT22;10979;48.306;9.830;2022-07-25T05:59:39;19.40;99.90
21635;DHT22;10979;48.306;9.830;2022-07-25T06:02:05;19.40;99.90
21635;DHT22;10979;48.306;9.830;2022-07-25T06:04:31;19.50;99.90
21635;DHT22;10979;48.306;9.830;2022-07-25T06:06:56;19.40;99.90
21635;DHT22;10979;48.306;9.830;2022-07-25T06:09:22;19.40;99.90
21635;DHT22;10979;48.306;9.830;2022-07-25T06:11:49;19.40;99.90
21635;DHT22;10979;48.306;9.830;2022-07-25T06:14:14;19.60;99.90
21635;DHT22;10979;48.306;9.830;2022-07-25T06:16:40;20.00;99.90
21635;DHT22;10979;48.306;9.830;2022-07-25T06:19:06;20.30;99.90
21635;DHT22;10979;48.306;9.830;2022-07-25T06:21:32;20.20;99.90
21635;DHT22;10979;48.306;9.830;2022-07-25T06:23:57;20.50;99.90
21635;DHT22;10979;48.306;9.830;2022-07-25T06:26:23;20.60;99.90
21635;DHT22;10979;48.306;9.830;2022-07-25T06:28:49;20.80;99.90
21635;DHT22;10979;48.306;9.830;2022-07-25T06:31:15;21.00;99.90
21635;DHT22;10979;48.306;9.830;2022-07-25T06:33:41;21.00;99.90
21635;DHT22;10979;48.306;9.830;2022-07-25T06:36:07;22.10;99.90
21635;DHT22;10979;48.306;9.830;2022-07-25T06:38:32;25.20;99.90
21635;DHT22;10979;48.306;9.830;2022-07-25T06:40:58;27.50;99.90
21635;DHT22;10979;48.306;9.830;2022-07-25T06:43:24;26.50;99.90
21635;DHT22;10979;48.306;9.830;2022-07-25T06:45:50;28.20;99.90
21635;DHT22;10979;48.306;9.830;2022-07-25T06:48:16;29.10;99.90
21635;DHT22;10979;48.306;9.830;2022-07-25T06:50:42;29.00;99.90
21635;DHT22;10979;48.306;9.830;2022-07-25T06:53:08;30.40;99.90
21635;DHT22;10979;48.306;9.830;2022-07-25T06:55:34;30.80;99.90
21635;DHT22;10979;48.306;9.830;2022-07-25T06:58:00;31.30;99.90
21635;DHT22;10979;48.306;9.830;2022-07-25T07:00:25;31.40;99.90
21635;DHT22;10979;48.306;9.830;2022-07-25T07:02:57;31.20;99.90
21635;DHT22;10979;48.306;9.830;2022-07-25T07:05:26;31.80;99.60
21635;DHT22;10979;48.306;9.830;2022-07-25T07:07:53;31.60;98.60
21635;DHT22;10979;48.306;9.830;2022-07-25T07:10:20;32.20;97.00
21635;DHT22;10979;48.306;9.830;2022-07-25T07:12:47;32.40;94.70
21635;DHT22;10979;48.306;9.830;2022-07-25T07:15:13;33.10;94.50
21635;DHT22;10979;48.306;9.830;2022-07-25T07:17:39;33.10;92.20
21635;DHT22;10979;48.306;9.830;2022-07-25T07:20:06;33.10;92.50
21635;DHT22;10979;48.306;9.830;2022-07-25T07:22:42;33.50;91.20
21635;DHT22;10979;48.306;9.830;2022-07-25T07:25:08;34.10;89.50
21635;DHT22;10979;48.306;9.830;2022-07-25T07:27:34;34.00;86.20
21635;DHT22;10979;48.306;9.830;2022-07-25T07:29:59;34.30;85.20
21635;DHT22;10979;48.306;9.830;2022-07-25T07:32:25;34.30;80.90
21635;DHT22;10979;48.306;9.830;2022-07-25T07:34:50;34.80;80.80
21635;DHT22;10979;48.306;9.830;2022-07-25T07:37:16;34.80;78.90
21635;DHT22;10979;48.306;9.830;2022-07-25T07:39:41;34.80;77.60
21635;DHT22;10979;48.306;9.830;2022-07-25T07:42:07;34.40;77.60
21635;DHT22;10979;48.306;9.830;2022-07-25T07:44:32;34.70;75.70
21635;DHT22;10979;48.306;9.830;2022-07-25T07:46:58;34.30;75.70
21635;DHT22;10979;48.306;9.830;2022-07-25T07:49:27;35.30;73.20
21635;DHT22;10979;48.306;9.830;2022-07-25T07:51:52;35.30;74.30
21635;DHT22;10979;48.306;9.830;2022-07-25T07:54:18;35.10;72.50
21635;DHT22;10979;48.306;9.830;2022-07-25T07:57:02;35.20;73.50
21635;DHT22;10979;48.306;9.830;2022-07-25T07:59:27;35.00;72.00
21635;DHT22;10979;48.306;9.830;2022-07-25T08:01:53;34.70;70.90
21635;DHT22;10979;48.306;9.830;2022-07-25T08:04:19;35.00;72.30
21635;DHT22;10979;48.306;9.830;2022-07-25T08:06:44;35.10;71.80
21635;DHT22;10979;48.306;9.830;2022-07-25T08:09:10;35.50;71.00
21635;DHT22;10979;48.306;9.830;2022-07-25T08:11:35;35.50;71.00
21635;DHT22;10979;48.306;9.830;2022-07-25T08:14:01;36.10;69.90
21635;DHT22;10979;48.306;9.830;2022-07-25T08:16:28;36.10;68.70
21635;DHT22;10979;48.306;9.830;2022-07-25T08:18:54;36.50;68.30
21635;DHT22;10979;48.306;9.830;2022-07-25T08:21:19;36.20;68.50
21635;DHT22;10979;48.306;9.830;2022-07-25T08:23:45;36.80;67.70
21635;DHT22;10979;48.306;9.830;2022-07-25T08:26:11;36.00;68.20
21635;DHT22;10979;48.306;9.830;2022-07-25T08:28:39;36.50;67.00
21635;DHT22;10979;48.306;9.830;2022-07-25T08:31:04;36.90;66.20
21635;DHT22;10979;48.306;9.830;2022-07-25T08:33:30;37.40;65.00
21635;DHT22;10979;48.306;9.830;2022-07-25T08:35:56;38.00;63.60
21635;DHT22;10979;48.306;9.830;2022-07-25T08:38:24;37.80;64.40
21635;DHT22;10979;48.306;9.830;2022-07-25T08:40:51;37.50;64.20
21635;DHT22;10979;48.306;9.830;2022-07-25T08:43:17;37.40;64.60
21635;DHT22;10979;48.306;9.830;2022-07-25T08:45:48;37.10;63.80
21635;DHT22;10979;48.306;9.830;2022-07-25T08:48:19;37.20;64.00
21635;DHT22;10979;48.306;9.830;2022-07-25T08:50:46;37.10;63.30
21635;DHT22;10979;48.306;9.830;2022-07-25T08:53:14;37.30;62.20
21635;DHT22;10979;48.306;9.830;2022-07-25T08:55:40;37.10;62.70
21635;DHT22;10979;48.306;9.830;2022-07-25T08:58:10;37.60;61.60
21635;DHT22;10979;48.306;9.830;2022-07-25T09:00:36;37.50;60.90
21635;DHT22;10979;48.306;9.830;2022-07-25T09:03:03;37.40;61.00
21635;DHT22;10979;48.306;9.830;2022-07-25T09:05:33;37.40;61.90
21635;DHT22;10979;48.306;9.830;2022-07-25T09:08:13;37.10;61.70
21635;DHT22;10979;48.306;9.830;2022-07-25T09:10:44;38.10;59.60
21635;DHT22;10979;48.306;9.830;2022-07-25T09:13:11;38.60;59.20
21635;DHT22;10979;48.306;9.830;2022-07-25T09:18:10;38.40;58.10
21635;DHT22;10979;48.306;9.830;2022-07-25T09:20:50;37.90;57.50
21635;DHT22;10979;48.306;9.830;2022-07-25T09:23:29;37.90;57.30
21635;DHT22;10979;48.306;9.830;2022-07-25T09:26:11;37.50;57.30
21635;DHT22;10979;48.306;9.830;2022-07-25T09:28:40;37.70;55.60
21635;DHT22;10979;48.306;9.830;2022-07-25T09:31:07;37.80;55.60
21635;DHT22;10979;48.306;9.830;2022-07-25T09:33:52;38.40;55.30
21635;DHT22;10979;48.306;9.830;2022-07-25T09:36:21;36.70;56.70
21635;DHT22;10979;48.306;9.830;2022-07-25T09:38:58;36.60;53.90
21635;DHT22;10979;48.306;9.830;2022-07-25T09:41:35;37.20;55.10
21635;DHT22;10979;48.306;9.830;2022-07-25T09:44:01;38.20;53.70
21635;DHT22;10979;48.306;9.830;2022-07-25T09:46:31;38.30;50.20
21635;DHT22;10979;48.306;9.830;2022-07-25T09:48:58;38.60;50.60
21635;DHT22;10979;48.306;9.830;2022-07-25T09:51:25;37.70;51.10
21635;DHT22;10979;48.306;9.830;2022-07-25T09:53:51;37.50;51.60
21635;DHT22;10979;48.306;9.830;2022-07-25T09:56:16;37.60;52.50
21635;DHT22;10979;48.306;9.830;2022-07-25T09:58:42;38.20;51.80
21635;DHT22;10979;48.306;9.830;2022-07-25T10:01:08;37.50;50.20
21635;DHT22;10979;48.306;9.830;2022-07-25T10:03:50;36.20;51.10
21635;DHT22;10979;48.306;9.830;2022-07-25T10:06:49;34.40;54.00
21635;DHT22;10979;48.306;9.830;2022-07-25T10:09:16;34.00;53.40
21635;DHT22;10979;48.306;9.830;2022-07-25T10:12:02;33.80;55.10
21635;DHT22;10979;48.306;9.830;2022-07-25T10:14:27;33.80;55.00
21635;DHT22;10979;48.306;9.830;2022-07-25T10:16:53;33.90;55.80
21635;DHT22;10979;48.306;9.830;2022-07-25T10:19:44;34.20;54.90
21635;DHT22;10979;48.306;9.830;2022-07-25T10:22:13;34.20;54.40
21635;DHT22;10979;48.306;9.830;2022-07-25T10:24:43;33.60;54.30
21635;DHT22;10979;48.306;9.830;2022-07-25T10:27:11;33.80;54.40
21635;DHT22;10979;48.306;9.830;2022-07-25T10:29:41;34.10;54.40
21635;DHT22;10979;48.306;9.830;2022-07-25T10:32:11;34.00;54.80
21635;DHT22;10979;48.306;9.830;2022-07-25T10:34:38;34.10;54.80
21635;DHT22;10979;48.306;9.830;2022-07-25T10:37:14;33.50;56.00
21635;DHT22;10979;48.306;9.830;2022-07-25T10:39:42;34.00;56.20
21635;DHT22;10979;48.306;9.830;2022-07-25T10:42:16;33.00;55.90
21635;DHT22;10979;48.306;9.830;2022-07-25T10:44:44;33.30;56.70
21635;DHT22;10979;48.306;9.830;2022-07-25T10:47:12;33.50;56.10
21635;DHT22;10979;48.306;9.830;2022-07-25T10:49:43;33.80;55.70
21635;DHT22;10979;48.306;9.830;2022-07-25T10:52:15;33.70;55.60
21635;DHT22;10979;48.306;9.830;2022-07-25T10:54:52;33.80;55.00
21635;DHT22;10979;48.306;9.830;2022-07-25T10:57:18;34.00;55.70
21635;DHT22;10979;48.306;9.830;2022-07-25T10:59:43;34.00;54.80
21635;DHT22;10979;48.306;9.830;2022-07-25T11:02:10;33.40;55.40
21635;DHT22;10979;48.306;9.830;2022-07-25T11:04:56;33.70;55.30
21635;DHT22;10979;48.306;9.830;2022-07-25T11:07:22;33.60;55.30
21635;DHT22;10979;48.306;9.830;2022-07-25T11:09:59;33.90;54.40
21635;DHT22;10979;48.306;9.830;2022-07-25T11:12:25;33.90;54.80
21635;DHT22;10979;48.306;9.830;2022-07-25T11:15:04;33.70;55.00
21635;DHT22;10979;48.306;9.830;2022-07-25T11:17:30;34.20;54.00
21635;DHT22;10979;48.306;9.830;2022-07-25T11:20:04;34.20;53.40
21635;DHT22;10979;48.306;9.830;2022-07-25T11:22:30;34.20;53.50
21635;DHT22;10979;48.306;9.830;2022-07-25T11:24:57;34.20;55.40
21635;DHT22;10979;48.306;9.830;2022-07-25T11:27:24;34.30;53.30
21635;DHT22;10979;48.306;9.830;2022-07-25T11:29:50;34.30;52.50
21635;DHT22;10979;48.306;9.830;2022-07-25T11:32:16;34.50;53.00
21635;DHT22;10979;48.306;9.830;2022-07-25T11:34:51;34.00;53.60
21635;DHT22;10979;48.306;9.830;2022-07-25T11:37:18;33.80;53.60
21635;DHT22;10979;48.306;9.830;2022-07-25T11:39:46;33.80;52.90
21635;DHT22;10979;48.306;9.830;2022-07-25T11:42:15;34.20;53.20
21635;DHT22;10979;48.306;9.830;2022-07-25T11:44:42;34.30;52.20
21635;DHT22;10979;48.306;9.830;2022-07-25T11:47:21;34.30;52.70
21635;DHT22;10979;48.306;9.830;2022-07-25T11:49:49;34.30;52.00
21635;DHT22;10979;48.306;9.830;2022-07-25T11:52:24;34.40;51.80
21635;DHT22;10979;48.306;9.830;2022-07-25T11:57:24;34.10;52.20
21635;DHT22;10979;48.306;9.830;2022-07-25T11:59:51;34.50;51.80
21635;DHT22;10979;48.306;9.830;2022-07-25T12:02:25;34.30;52.90
21635;DHT22;10979;48.306;9.830;2022-07-25T12:04:56;34.20;52.90
21635;DHT22;10979;48.306;9.830;2022-07-25T12:07:42;34.60;53.30
21635;DHT22;10979;48.306;9.830;2022-07-25T12:10:16;34.30;52.70
21635;DHT22;10979;48.306;9.830;2022-07-25T12:15:20;34.50;52.70
21635;DHT22;10979;48.306;9.830;2022-07-25T12:17:48;34.60;52.50
21635;DHT22;10979;48.306;9.830;2022-07-25T12:20:30;34.80;52.00
21635;DHT22;10979;48.306;9.830;2022-07-25T12:22:58;34.60;52.60
21635;DHT22;10979;48.306;9.830;2022-07-25T12:25:24;34.70;52.80
21635;DHT22;10979;48.306;9.830;2022-07-25T12:27:50;34.70;51.50
21635;DHT22;10979;48.306;9.830;2022-07-25T12:30:16;33.90;52.30
21635;DHT22;10979;48.306;9.830;2022-07-25T12:32:42;34.20;52.60
21635;DHT22;10979;48.306;9.830;2022-07-25T12:35:10;34.10;52.70
21635;DHT22;10979;48.306;9.830;2022-07-25T12:37:36;34.40;52.50
21635;DHT22;10979;48.306;9.830;2022-07-25T12:40:03;34.60;53.10
21635;DHT22;10979;48.306;9.830;2022-07-25T12:42:29;35.00;51.80
21635;DHT22;10979;48.306;9.830;2022-07-25T12:44:55;34.80;52.20
21635;DHT22;10979;48.306;9.830;2022-07-25T12:47:22;34.90;51.70
21635;DHT22;10979;48.306;9.830;2022-07-25T12:49:48;34.80;52.30
21635;DHT22;10979;48.306;9.830;2022-07-25T12:52:13;34.20;52.90
21635;DHT22;10979;48.306;9.830;2022-07-25T12:54:39;34.40;53.60
21635;DHT22;10979;48.306;9.830;2022-07-25T12:57:05;34.60;52.00
21635;DHT22;10979;48.306;9.830;2022-07-25T12:59:30;34.80;52.60
21635;DHT22;10979;48.306;9.830;2022-07-25T13:01:56;35.00;51.80
21635;DHT22;10979;48.306;9.830;2022-07-25T13:04:21;35.10;51.70
21635;DHT22;10979;48.306;9.830;2022-07-25T13:06:47;35.20;51.70
21635;DHT22;10979;48.306;9.830;2022-07-25T13:09:13;35.50;51.50
21635;DHT22;10979;48.306;9.830;2022-07-25T13:11:39;35.00;50.70
21635;DHT22;10979;48.306;9.830;2022-07-25T13:14:04;34.70;51.00
21635;DHT22;10979;48.306;9.830;2022-07-25T13:16:30;35.10;52.30
21635;DHT22;10979;48.306;9.830;2022-07-25T13:18:56;35.20;50.70
21635;DHT22;10979;48.306;9.830;2022-07-25T13:21:21;35.00;50.60
21635;DHT22;10979;48.306;9.830;2022-07-25T13:23:47;35.50;50.50
21635;DHT22;10979;48.306;9.830;2022-07-25T13:26:12;35.70;49.80
21635;DHT22;10979;48.306;9.830;2022-07-25T13:28:38;35.70;48.90
21635;DHT22;10979;48.306;9.830;2022-07-25T13:31:04;35.50;48.90
21635;DHT22;10979;48.306;9.830;2022-07-25T13:33:33;35.30;48.60
21635;DHT22;10979;48.306;9.830;2022-07-25T13:35:58;34.80;48.90
21635;DHT22;10979;48.306;9.830;2022-07-25T13:38:24;35.40;48.90
21635;DHT22;10979;48.306;9.830;2022-07-25T13:40:50;35.70;48.00
21635;DHT22;10979;48.306;9.830;2022-07-25T13:43:15;35.60;48.00
21635;DHT22;10979;48.306;9.830;2022-07-25T13:45:41;35.70;47.80
21635;DHT22;10979;48.306;9.830;2022-07-25T13:48:07;35.50;47.40
21635;DHT22;10979;48.306;9.830;2022-07-25T13:50:33;35.60;47.50
21635;DHT22;10979;48.306;9.830;2022-07-25T13:53:00;35.60;47.90
21635;DHT22;10979;48.306;9.830;2022-07-25T13:55:26;35.10;47.90
21635;DHT22;10979;48.306;9.830;2022-07-25T13:57:52;35.00;47.70
21635;DHT22;10979;48.306;9.830;2022-07-25T14:00:18;35.50;47.90
21635;DHT22;10979;48.306;9.830;2022-07-25T14:02:44;35.60;47.10
21635;DHT22;10979;48.306;9.830;2022-07-25T14:05:10;35.50;47.20
21635;DHT22;10979;48.306;9.830;2022-07-25T14:07:36;35.30;47.00
21635;DHT22;10979;48.306;9.830;2022-07-25T14:10:03;35.40;46.40
21635;DHT22;10979;48.306;9.830;2022-07-25T14:12:29;35.40;46.40
21635;DHT22;10979;48.306;9.830;2022-07-25T14:14:55;35.60;46.50
21635;DHT22;10979;48.306;9.830;2022-07-25T14:17:21;35.60;45.30
21635;DHT22;10979;48.306;9.830;2022-07-25T14:19:46;35.50;44.40
21635;DHT22;10979;48.306;9.830;2022-07-25T14:22:12;35.20;44.30
21635;DHT22;10979;48.306;9.830;2022-07-25T14:24:38;34.60;45.10
21635;DHT22;10979;48.306;9.830;2022-07-25T14:27:04;34.70;45.30
21635;DHT22;10979;48.306;9.830;2022-07-25T14:29:29;35.10;44.90
21635;DHT22;10979;48.306;9.830;2022-07-25T14:31:55;35.10;44.50
21635;DHT22;10979;48.306;9.830;2022-07-25T14:34:20;35.20;44.90
21635;DHT22;10979;48.306;9.830;2022-07-25T14:36:46;35.00;45.50
21635;DHT22;10979;48.306;9.830;2022-07-25T14:39:13;34.60;44.10
21635;DHT22;10979;48.306;9.830;2022-07-25T14:41:39;34.30;43.80
21635;DHT22;10979;48.306;9.830;2022-07-25T14:44:05;34.00;43.70
21635;DHT22;10979;48.306;9.830;2022-07-25T14:46:31;34.20;43.20
21635;DHT22;10979;48.306;9.830;2022-07-25T14:48:56;34.20;43.60
21635;DHT22;10979;48.306;9.830;2022-07-25T14:51:23;34.40;43.60
21635;DHT22;10979;48.306;9.830;2022-07-25T14:53:49;34.20;43.30
21635;DHT22;10979;48.306;9.830;2022-07-25T14:56:15;34.30;44.00
21635;DHT22;10979;48.306;9.830;2022-07-25T14:58:41;34.10;43.50
21635;DHT22;10979;48.306;9.830;2022-07-25T15:01:06;34.10;44.00
21635;DHT22;10979;48.306;9.830;2022-07-25T15:03:36;33.90;44.30
21635;DHT22;10979;48.306;9.830;2022-07-25T15:06:02;33.80;43.80
21635;DHT22;10979;48.306;9.830;2022-07-25T15:08:30;34.00;43.10
21635;DHT22;10979;48.306;9.830;2022-07-25T15:10:56;34.00;43.20
21635;DHT22;10979;48.306;9.830;2022-07-25T15:13:21;33.90;44.00
21635;DHT22;10979;48.306;9.830;2022-07-25T15:15:47;33.60;43.50
21635;DHT22;10979;48.306;9.830;2022-07-25T15:18:13;33.40;44.10
21635;DHT22;10979;48.306;9.830;2022-07-25T15:20:39;33.60;44.50
21635;DHT22;10979;48.306;9.830;2022-07-25T15:23:05;34.00;44.00
21635;DHT22;10979;48.306;9.830;2022-07-25T15:25:30;34.20;43.30
21635;DHT22;10979;48.306;9.830;2022-07-25T15:27:57;33.80;43.50
21635;DHT22;10979;48.306;9.830;2022-07-25T15:30:23;33.40;44.60
21635;DHT22;10979;48.306;9.830;2022-07-25T15:32:48;33.00;44.30
21635;DHT22;10979;48.306;9.830;2022-07-25T15:35:14;32.70;45.00
21635;DHT22;10979;48.306;9.830;2022-07-25T15:37:40;32.60;45.40